This is the latest recevied weather packets stored in our database for station/object GW1492. If no packets are shown the sender has not sent any weather packets the latest 10 day(s).
| Time | Temp. | Humidity | Pressure | Rain* | Wind** | Luminosity | Snow |
|---|---|---|---|---|---|---|---|
| 1777343791 | 16.11° C | 62% | 1019.3 hPa | 0.51 mm | - | - | - |
| 1777340930 | 16.67° C | 60% | 1018.9 hPa | 0.51 mm | - | - | - |
| 1777340547 | 16.67° C | 62% | 1018.9 hPa | 0.51 mm | - | - | - |
| 1777340207 | 16.67° C | 62% | 1018.9 hPa | 0.51 mm | - | - | - |
| 1777337298 | 18.33° C | 56% | 1018.6 hPa | 0.51 mm | - | - | - |
| 1777335889 | 19.44° C | 52% | 1018.6 hPa | 0.51 mm | - | - | - |
| 1777332627 | 20.56° C | 55% | 1018.6 hPa | 0.51 mm | - | - | - |
| 1777330491 | 22.22° C | 45% | 1018.6 hPa | 0.51 mm | - | - | - |
| 1777326860 | 22.78° C | 43% | 1018.6 hPa | 0.51 mm | - | - | - |
| 1777326170 | 22.78° C | 47% | 1018.6 hPa | 0.51 mm | - | - | - |
| 1777322919 | 23.33° C | 43% | 1018.6 hPa | 0.51 mm | - | - | - |
| 1777320052 | 23.89° C | 43% | 1019.3 hPa | 0.51 mm | - | - | - |
| 1777318247 | 23.89° C | 39% | 1019.6 hPa | 0.51 mm | - | - | - |
| 1777314287 | 25.56° C | 37% | 1020.3 hPa | 0.51 mm | - | - | - |
| 1777313213 | 26.11° C | 42% | 1020.3 hPa | 0.51 mm | - | - | - |
| 1777307091 | 22.78° C | 55% | 1021.6 hPa | 0.51 mm | - | - | - |
| 1777305250 | 22.78° C | 55% | 1021.6 hPa | 0.51 mm | - | - | - |
| 1777303133 | 21.11° C | 56% | 1021.6 hPa | 0.51 mm | - | - | - |
| 1777302731 | 21.11° C | 59% | 1021.3 hPa | 0.51 mm | - | - | - |
| 1777301295 | 19.44° C | 60% | 1021.6 hPa | 0.51 mm | - | - | - |
| 1777300948 | 20° C | 59% | 1021.6 hPa | 0.51 mm | - | - | - |
| 1777300590 | 19.44° C | 65% | 1021.6 hPa | 0.51 mm | - | - | - |
| 1777297734 | 13.33° C | 81% | 1021.6 hPa | 0.51 mm | - | - | - |
| 1777297359 | 13.33° C | 82% | 1021.6 hPa | 0.51 mm | - | - | - |
| 1777296286 | 12.22° C | 85% | 1021.6 hPa | 0.51 mm | - | - | - |
* Rain since midnight (hover to see other rain measurements)
** Current wind speed in m/s (hover to see current wind gust speed)